createdAt,value
2022-09-14T00:01:48.845Z,7.20
2022-09-14T00:04:20.277Z,6.82
2022-09-14T00:06:49.675Z,9.52
2022-09-14T00:09:23.127Z,6.78
2022-09-14T00:11:52.379Z,6.13
2022-09-14T00:14:21.636Z,6.97
2022-09-14T00:16:51.013Z,8.20
2022-09-14T00:19:22.563Z,7.40
2022-09-14T00:21:53.113Z,6.55
2022-09-14T00:24:22.448Z,6.63
2022-09-14T00:26:50.831Z,6.18
2022-09-14T00:29:19.788Z,5.45
2022-09-14T00:31:48.347Z,5.43
2022-09-14T00:34:17.864Z,7.40
2022-09-14T00:36:49.765Z,6.25
2022-09-14T00:39:19.651Z,5.43
2022-09-14T00:41:49.859Z,6.53
2022-09-14T00:45:10.362Z,8.35
2022-09-14T00:47:38.630Z,5.40
2022-09-14T00:50:08.073Z,9.40
2022-09-14T00:52:42.145Z,5.93
2022-09-14T00:55:13.072Z,6.88
2022-09-14T00:57:44.532Z,7.13
2022-09-14T01:00:16.655Z,5.93
2022-09-14T01:02:45.923Z,8.98
2022-09-14T01:05:14.829Z,7.28
2022-09-14T01:08:18.225Z,5.22
2022-09-14T01:11:01.622Z,9.95
2022-09-14T01:13:42.106Z,7.63
2022-09-14T01:16:20.249Z,6.05
2022-09-14T01:18:52.835Z,9.20
2022-09-14T01:21:25.111Z,10.82
2022-09-14T01:24:05.406Z,8.50
2022-09-14T01:26:56.397Z,8.10
2022-09-14T01:29:30.453Z,6.53
2022-09-14T01:32:04.483Z,8.90
2022-09-14T01:34:37.355Z,9.65
2022-09-14T01:37:13.254Z,8.95
2022-09-14T01:39:44.999Z,8.00
2022-09-14T01:42:18.025Z,7.10
2022-09-14T01:44:53.502Z,11.57
2022-09-14T01:47:27.504Z,8.48
2022-09-14T01:50:00.733Z,6.93
2022-09-14T01:52:35.327Z,9.02
2022-09-14T01:55:09.850Z,8.33
2022-09-14T01:57:45.851Z,9.30
2022-09-14T02:00:20.319Z,6.97
2022-09-14T02:02:51.213Z,8.68
2022-09-14T02:05:26.831Z,5.60
2022-09-14T02:07:56.538Z,8.88
2022-09-14T02:10:25.923Z,7.22
2022-09-14T02:12:55.435Z,6.80
2022-09-14T02:15:26.398Z,7.10
2022-09-14T02:17:55.277Z,7.18
2022-09-14T02:20:29.090Z,10.02
2022-09-14T02:22:57.885Z,7.40
2022-09-14T02:25:26.323Z,6.32
2022-09-14T02:27:55.457Z,7.63
2022-09-14T02:30:25.444Z,7.47
2022-09-14T02:33:08.318Z,7.35
2022-09-14T02:35:40.854Z,9.38
2022-09-14T02:38:16.067Z,6.95
2022-09-14T02:40:53.049Z,8.13
2022-09-14T02:43:31.209Z,7.32
2022-09-14T02:46:06.778Z,8.43
2022-09-14T02:48:43.094Z,12.68
2022-09-14T02:51:22.628Z,9.88
2022-09-14T02:53:59.577Z,8.15
2022-09-14T02:56:29.717Z,10.50
2022-09-14T02:58:58.020Z,8.00
2022-09-14T03:01:28.050Z,12.25
2022-09-14T03:03:56.298Z,9.57
2022-09-14T03:06:24.640Z,8.68
2022-09-14T03:08:52.901Z,15.25
2022-09-14T03:11:21.382Z,10.20
2022-09-14T03:13:49.943Z,10.13
2022-09-14T03:16:19.469Z,10.02
2022-09-14T03:18:49.151Z,9.57
2022-09-14T03:21:18.543Z,10.95
2022-09-14T03:23:48.312Z,12.40
2022-09-14T03:26:18.047Z,17.00
2022-09-14T03:28:46.395Z,10.85
2022-09-14T03:31:14.745Z,10.05
2022-09-14T03:33:43.166Z,8.50
2022-09-14T03:36:15.736Z,9.77
2022-09-14T03:38:45.480Z,10.10
2022-09-14T03:41:14.872Z,11.27
2022-09-14T03:43:44.275Z,10.50
2022-09-14T03:46:15.187Z,11.77
2022-09-14T03:48:44.290Z,10.18
2022-09-14T03:51:15.269Z,8.15
2022-09-14T03:53:44.923Z,12.65
2022-09-14T03:56:16.514Z,8.90
2022-09-14T03:58:46.030Z,9.55
2022-09-14T04:01:17.976Z,11.00
2022-09-14T04:03:46.831Z,10.75
2022-09-14T04:06:17.952Z,13.73
2022-09-14T04:08:47.726Z,10.60
2022-09-14T04:11:18.313Z,10.77
2022-09-14T04:13:47.339Z,12.13
2022-09-14T04:16:16.433Z,9.60
2022-09-14T04:18:45.174Z,11.63
2022-09-14T04:21:18.382Z,10.18
2022-09-14T04:24:10.634Z,11.98
2022-09-14T04:26:35.598Z,12.05
2022-09-14T04:29:03.900Z,9.98
2022-09-14T04:31:32.412Z,16.30
2022-09-14T04:34:00.791Z,12.63
2022-09-14T04:36:31.422Z,10.35
2022-09-14T04:39:01.735Z,10.75
2022-09-14T04:41:31.421Z,10.00
2022-09-14T04:44:00.681Z,15.18
2022-09-14T04:46:32.273Z,12.30
2022-09-14T04:49:00.754Z,9.07
2022-09-14T04:51:33.200Z,12.00
2022-09-14T04:54:04.608Z,9.98
2022-09-14T04:56:34.797Z,10.13
2022-09-14T04:59:05.710Z,12.07
2022-09-14T05:01:36.052Z,11.33
2022-09-14T05:04:05.726Z,12.73
2022-09-14T05:06:36.734Z,12.90
2022-09-14T05:09:07.784Z,13.90
2022-09-14T05:11:37.738Z,15.20
2022-09-14T05:14:06.572Z,12.63
2022-09-14T05:16:36.574Z,12.98
2022-09-14T05:19:07.360Z,14.75
2022-09-14T05:21:38.489Z,15.00
2022-09-14T05:24:08.968Z,15.45
2022-09-14T05:26:37.231Z,11.63
2022-09-14T05:29:05.745Z,15.88
2022-09-14T05:31:34.328Z,14.68
2022-09-14T05:34:02.656Z,16.60
2022-09-14T05:36:31.067Z,13.85
2022-09-14T05:39:01.060Z,11.63
2022-09-14T05:41:29.329Z,14.10
2022-09-14T05:43:58.050Z,13.93
2022-09-14T05:46:26.360Z,12.52
2022-09-14T05:48:54.673Z,13.35
2022-09-14T05:51:25.038Z,12.75
2022-09-14T05:53:55.082Z,13.35
2022-09-14T05:56:26.362Z,12.10
2022-09-14T05:58:55.622Z,11.95
2022-09-14T06:01:26.619Z,12.32
2022-09-14T06:03:55.728Z,10.55
2022-09-14T06:06:25.282Z,13.32
2022-09-14T06:08:55.745Z,9.83
2022-09-14T06:11:27.070Z,11.90
2022-09-14T06:13:55.893Z,12.95
2022-09-14T06:16:25.943Z,11.98
2022-09-14T06:18:56.564Z,11.82
2022-09-14T06:21:28.120Z,13.38
2022-09-14T06:23:56.940Z,13.67
2022-09-14T06:26:26.822Z,14.95
2022-09-14T06:28:55.698Z,11.32
2022-09-14T06:31:25.295Z,15.50
2022-09-14T06:33:54.485Z,13.77
2022-09-14T06:36:25.155Z,12.68
2022-09-14T06:38:54.219Z,12.48
2022-09-14T06:41:26.592Z,15.35
2022-09-14T06:43:57.458Z,14.43
2022-09-14T06:46:27.970Z,13.40
2022-09-14T06:48:58.575Z,13.18
2022-09-14T06:51:29.238Z,10.68
2022-09-14T06:53:59.467Z,11.07
2022-09-14T06:56:28.728Z,10.80
2022-09-14T06:58:59.175Z,11.35
2022-09-14T07:01:28.500Z,14.40
2022-09-14T07:03:57.221Z,13.23
2022-09-14T07:06:27.161Z,13.40
2022-09-14T07:08:55.897Z,12.95
2022-09-14T07:11:26.773Z,17.42
2022-09-14T07:13:59.843Z,14.68
2022-09-14T07:16:30.712Z,14.93
2022-09-14T07:19:01.874Z,18.63
2022-09-14T07:21:31.002Z,17.73
2022-09-14T07:24:00.107Z,17.00
2022-09-14T07:26:30.662Z,19.60
2022-09-14T07:29:01.578Z,22.83
2022-09-14T07:31:33.612Z,15.68
2022-09-14T07:34:03.471Z,16.70
2022-09-14T07:36:34.950Z,14.40
2022-09-14T07:39:05.011Z,18.15
2022-09-14T07:41:35.015Z,16.77
2022-09-14T07:44:05.724Z,18.35
2022-09-14T07:46:39.469Z,16.00
2022-09-14T07:49:09.230Z,16.42
2022-09-14T07:51:38.426Z,17.67
2022-09-14T07:54:07.858Z,19.58
2022-09-14T07:56:36.158Z,16.70
2022-09-14T07:59:33.427Z,17.42
2022-09-14T08:01:54.946Z,17.02
2022-09-14T08:04:23.397Z,16.42
2022-09-14T08:06:51.557Z,19.08
2022-09-14T08:09:19.821Z,17.02
2022-09-14T08:11:48.009Z,19.58
2022-09-14T08:14:16.204Z,19.83
2022-09-14T08:16:44.686Z,17.25
2022-09-14T08:19:16.686Z,18.33
2022-09-14T08:21:47.462Z,17.13
2022-09-14T08:24:18.265Z,17.63
2022-09-14T08:26:48.129Z,19.08
2022-09-14T08:29:18.186Z,16.60
2022-09-14T08:31:47.280Z,18.27
2022-09-14T08:34:18.175Z,13.07
2022-09-14T08:36:47.844Z,15.25
2022-09-14T08:39:17.764Z,15.02
2022-09-14T08:41:55.594Z,15.77
2022-09-14T08:44:28.247Z,13.77
2022-09-14T08:47:02.871Z,12.00
2022-09-14T08:49:48.587Z,14.48
2022-09-14T08:52:29.290Z,11.55
2022-09-14T08:55:00.011Z,9.45
2022-09-14T08:57:34.633Z,10.77
2022-09-14T09:00:10.299Z,11.00
2022-09-14T09:03:20.663Z,10.45
2022-09-14T09:05:54.650Z,10.50
2022-09-14T09:08:31.402Z,8.77
2022-09-14T09:11:01.750Z,11.47
2022-09-14T09:13:34.208Z,10.35
2022-09-14T09:16:05.997Z,9.60
2022-09-14T09:18:40.491Z,8.23
2022-09-14T09:21:16.476Z,10.15
2022-09-14T09:23:46.199Z,8.75
2022-09-14T09:26:18.428Z,7.53
2022-09-14T09:28:49.595Z,7.82
2022-09-14T09:31:20.070Z,7.47
2022-09-14T09:34:07.524Z,5.97
2022-09-14T09:36:41.429Z,8.07
2022-09-14T09:39:12.344Z,6.68
2022-09-14T09:41:45.967Z,6.38
2022-09-14T09:44:14.824Z,11.52
2022-09-14T09:46:48.854Z,8.70
2022-09-14T09:49:21.909Z,9.38
2022-09-14T09:51:53.389Z,7.70
2022-09-14T09:54:33.511Z,8.43
2022-09-14T09:57:04.133Z,10.40
2022-09-14T09:59:36.434Z,9.07
2022-09-14T10:02:28.085Z,9.27
2022-09-14T10:05:02.439Z,9.73
2022-09-14T10:07:35.834Z,8.20
2022-09-14T10:10:07.668Z,10.40
2022-09-14T10:12:37.572Z,9.80
2022-09-14T10:15:16.381Z,11.57
2022-09-14T10:18:06.060Z,10.30
2022-09-14T10:20:34.935Z,11.00
2022-09-14T10:23:24.233Z,11.30
2022-09-14T10:25:54.735Z,10.57
2022-09-14T10:28:28.440Z,12.00
2022-09-14T10:31:02.267Z,15.63
2022-09-14T10:33:31.302Z,12.02
2022-09-14T10:36:09.287Z,18.13
2022-09-14T10:38:45.960Z,18.45
2022-09-14T10:41:24.013Z,19.15
2022-09-14T10:44:24.397Z,13.15
2022-09-14T10:47:11.485Z,15.60
2022-09-14T10:49:52.936Z,14.25
2022-09-14T10:52:29.905Z,11.27
2022-09-14T10:55:31.858Z,10.50
2022-09-14T10:58:10.774Z,9.23
2022-09-14T11:00:46.447Z,10.47
2022-09-14T11:03:25.729Z,7.78
2022-09-14T11:06:04.928Z,6.03
2022-09-14T11:08:35.302Z,5.93
2022-09-14T11:11:27.383Z,5.33
2022-09-14T11:14:17.720Z,5.53
2022-09-14T11:17:14.538Z,5.68
2022-09-14T11:19:53.044Z,5.47
2022-09-14T11:22:32.017Z,4.20
2022-09-14T11:25:05.972Z,4.87
2022-09-14T11:27:41.000Z,3.60
2022-09-14T11:30:15.430Z,5.13
2022-09-14T11:32:48.377Z,9.13
2022-09-14T11:35:20.925Z,4.47
2022-09-14T11:37:54.442Z,5.87
2022-09-14T11:40:29.153Z,4.43
2022-09-14T11:43:04.087Z,8.47
2022-09-14T11:45:37.488Z,5.10
2022-09-14T11:48:41.488Z,6.00
2022-09-14T11:51:07.640Z,7.82
2022-09-14T11:53:37.426Z,5.07
2022-09-14T11:56:06.174Z,7.03
2022-09-14T11:58:36.276Z,2.93
2022-09-14T12:01:27.911Z,2.73
2022-09-14T12:04:11.672Z,2.80
2022-09-14T12:07:00.805Z,3.37
2022-09-14T12:09:40.604Z,2.73
2022-09-14T12:12:29.971Z,4.30
2022-09-14T12:15:03.719Z,4.73
2022-09-14T12:17:39.984Z,6.80
2022-09-14T12:20:30.006Z,4.80
2022-09-14T12:23:16.820Z,4.57
2022-09-14T12:26:13.833Z,4.23
2022-09-14T12:28:48.346Z,5.57
2022-09-14T12:31:36.245Z,4.67
2022-09-14T12:34:18.736Z,5.67
2022-09-14T12:37:28.729Z,5.53
2022-09-14T12:40:34.652Z,6.13
2022-09-14T12:43:48.488Z,6.57
2022-09-14T12:46:38.609Z,5.33
2022-09-14T12:49:37.120Z,4.83
2022-09-14T12:52:29.853Z,6.00
2022-09-14T12:55:12.288Z,6.43
2022-09-14T12:57:46.956Z,6.22
2022-09-14T13:00:18.091Z,5.03
2022-09-14T13:03:14.777Z,6.27
2022-09-14T13:05:46.249Z,5.70
2022-09-14T13:08:21.927Z,7.80
2022-09-14T13:10:54.156Z,8.30
2022-09-14T13:13:24.885Z,9.13
2022-09-14T13:15:55.879Z,10.70
2022-09-14T13:18:37.174Z,11.87
2022-09-14T13:21:19.419Z,11.90
2022-09-14T13:23:48.285Z,13.20
2022-09-14T13:26:20.567Z,11.82
2022-09-14T13:28:51.482Z,12.40
2022-09-14T13:31:25.509Z,10.70
2022-09-14T13:33:56.700Z,12.70
2022-09-14T13:36:28.563Z,13.27
2022-09-14T13:39:01.567Z,13.87
2022-09-14T13:41:32.085Z,12.23
2022-09-14T13:44:01.785Z,11.63
2022-09-14T13:46:30.223Z,10.13
2022-09-14T13:49:00.751Z,9.63
2022-09-14T13:51:31.572Z,11.05
2022-09-14T13:54:17.715Z,11.23
2022-09-14T13:56:47.722Z,15.47
2022-09-14T13:59:21.739Z,14.10
2022-09-14T14:01:59.107Z,14.95
2022-09-14T14:04:34.134Z,12.77
2022-09-14T14:07:19.041Z,11.25
2022-09-14T14:09:51.749Z,10.77
2022-09-14T14:12:26.334Z,11.60
2022-09-14T14:14:59.406Z,12.33
2022-09-14T14:17:36.939Z,13.70
2022-09-14T14:20:32.921Z,11.27
2022-09-14T14:23:21.775Z,12.27
2022-09-14T14:25:54.346Z,13.03
2022-09-14T14:28:26.901Z,11.50
2022-09-14T14:30:56.348Z,10.70
2022-09-14T14:33:25.654Z,11.57
2022-09-14T14:35:57.059Z,10.60
2022-09-14T14:38:25.843Z,11.23
2022-09-14T14:40:58.140Z,10.18
2022-09-14T14:43:28.199Z,12.47
2022-09-14T14:45:59.321Z,12.10
2022-09-14T14:48:28.185Z,11.97
2022-09-14T14:50:57.829Z,13.50
2022-09-14T14:53:26.976Z,10.37
2022-09-14T14:55:55.283Z,10.53
2022-09-14T14:58:24.261Z,11.38
2022-09-14T15:00:53.022Z,10.77
2022-09-14T15:03:21.770Z,9.68
2022-09-14T15:05:51.234Z,9.60
2022-09-14T15:08:21.252Z,8.95
2022-09-14T15:10:50.186Z,8.07
2022-09-14T15:13:18.444Z,7.63
2022-09-14T15:15:46.815Z,11.32
2022-09-14T15:18:15.123Z,12.77
2022-09-14T15:20:43.422Z,9.88
2022-09-14T15:23:14.210Z,8.70
2022-09-14T15:25:44.108Z,9.88
2022-09-14T15:28:12.510Z,10.60
2022-09-14T15:30:41.715Z,11.40
2022-09-14T15:33:10.199Z,9.67
2022-09-14T15:35:40.146Z,10.73
2022-09-14T15:38:08.477Z,10.25
2022-09-14T15:40:36.962Z,11.60
2022-09-14T15:43:07.011Z,9.20
2022-09-14T15:45:35.486Z,10.30
2022-09-14T15:48:04.030Z,10.00
2022-09-14T15:50:32.335Z,11.93
2022-09-14T15:53:02.861Z,13.47
2022-09-14T15:55:31.375Z,12.53
2022-09-14T15:57:59.907Z,16.17
2022-09-14T16:00:29.528Z,14.03
2022-09-14T16:02:57.914Z,14.13
2022-09-14T16:05:26.218Z,16.67
2022-09-14T16:07:54.932Z,19.17
2022-09-14T16:10:25.590Z,17.90
2022-09-14T16:12:54.855Z,17.98
2022-09-14T16:15:23.485Z,19.30
2022-09-14T16:17:54.191Z,17.45
2022-09-14T16:20:23.323Z,16.17
2022-09-14T16:22:52.314Z,15.83
2022-09-14T16:25:20.639Z,17.30
2022-09-14T16:27:49.041Z,15.23
2022-09-14T16:30:17.475Z,16.97
2022-09-14T16:32:45.773Z,16.00
2022-09-14T16:35:15.596Z,14.90
2022-09-14T16:37:43.868Z,15.93
2022-09-14T16:40:13.892Z,16.63
2022-09-14T16:42:42.957Z,14.37
2022-09-14T16:45:11.493Z,18.77
2022-09-14T16:47:39.889Z,16.30
2022-09-14T16:50:08.596Z,16.83
2022-09-14T16:52:38.258Z,17.27
2022-09-14T16:55:07.734Z,19.73
2022-09-14T16:57:36.064Z,18.43
2022-09-14T17:00:05.408Z,19.33
2022-09-14T17:02:33.782Z,19.80
2022-09-14T17:05:02.122Z,15.88
2022-09-14T17:07:30.373Z,18.33
2022-09-14T17:10:00.075Z,16.57
2022-09-14T17:12:28.339Z,18.07
2022-09-14T17:14:56.608Z,19.77
2022-09-14T17:17:25.224Z,15.83
2022-09-14T17:19:53.516Z,16.97
2022-09-14T17:22:22.158Z,20.43
2022-09-14T17:24:50.452Z,17.23
2022-09-14T17:27:20.068Z,16.47
2022-09-14T17:29:48.615Z,17.50
2022-09-14T17:32:16.916Z,14.13
2022-09-14T17:34:45.920Z,15.60
2022-09-14T17:37:14.249Z,15.52
2022-09-14T17:39:42.560Z,13.37
2022-09-14T17:42:11.127Z,13.67
2022-09-14T17:44:40.994Z,12.77
2022-09-14T17:47:09.303Z,15.67
2022-09-14T17:49:37.700Z,12.50
2022-09-14T17:52:06.446Z,13.85
2022-09-14T17:54:34.763Z,11.40
2022-09-14T17:57:03.137Z,11.63
2022-09-14T17:59:31.454Z,12.32
2022-09-14T18:02:01.508Z,11.07
2022-09-14T18:04:30.258Z,9.83
2022-09-14T18:06:58.634Z,7.50
2022-09-14T18:09:26.961Z,10.30
2022-09-14T18:11:57.452Z,8.90
2022-09-14T18:14:26.127Z,10.30
2022-09-14T18:16:54.471Z,11.33
2022-09-14T18:19:24.164Z,9.00
2022-09-14T18:21:53.034Z,10.32
2022-09-14T18:24:21.893Z,8.70
2022-09-14T18:26:50.369Z,7.87
2022-09-14T18:29:21.193Z,11.20
2022-09-14T18:31:49.813Z,8.93
2022-09-14T18:34:18.491Z,10.43
2022-09-14T18:36:49.578Z,9.47
2022-09-14T18:39:18.042Z,11.50
2022-09-14T18:41:46.302Z,9.27
2022-09-14T18:44:14.569Z,11.00
2022-09-14T18:46:44.474Z,11.47
2022-09-14T18:49:12.811Z,11.13
2022-09-14T18:51:41.036Z,11.10
2022-09-14T18:54:12.872Z,11.90
2022-09-14T18:56:41.553Z,14.13
2022-09-14T18:59:13.217Z,11.50
2022-09-14T19:01:42.846Z,10.53
2022-09-14T19:04:12.297Z,12.47
2022-09-14T19:06:42.313Z,14.80
2022-09-14T19:09:13.429Z,12.90
2022-09-14T19:11:42.179Z,12.27
2022-09-14T19:14:12.952Z,12.13
2022-09-14T19:16:42.728Z,12.63
2022-09-14T19:19:14.110Z,14.03
2022-09-14T19:21:42.413Z,11.73
2022-09-14T19:24:14.400Z,13.07
2022-09-14T19:26:49.149Z,11.23
2022-09-14T19:29:19.990Z,10.60
2022-09-14T19:31:51.561Z,11.07
2022-09-14T19:34:20.826Z,11.63
2022-09-14T19:36:49.730Z,8.13
2022-09-14T19:39:19.534Z,10.37
2022-09-14T19:41:48.430Z,13.17
2022-09-14T19:44:17.426Z,11.73
2022-09-14T19:46:46.170Z,10.10
2022-09-14T19:49:16.760Z,9.33
2022-09-14T19:51:46.920Z,10.00
2022-09-14T19:54:15.651Z,8.70
2022-09-14T19:56:46.195Z,13.07
2022-09-14T19:59:15.324Z,8.07
2022-09-14T20:01:44.074Z,10.60
2022-09-14T20:04:13.087Z,9.87
2022-09-14T20:06:43.816Z,9.50
2022-09-14T20:09:15.081Z,9.53
2022-09-14T20:11:46.238Z,8.80
2022-09-14T20:14:17.540Z,8.80
2022-09-14T20:16:47.648Z,8.93
2022-09-14T20:19:18.006Z,10.77
2022-09-14T20:21:47.475Z,8.57
2022-09-14T20:24:18.206Z,9.47
2022-09-14T20:26:49.445Z,9.63
2022-09-14T20:29:19.260Z,11.83
2022-09-14T20:31:48.559Z,9.70
2022-09-14T20:34:19.690Z,10.83
2022-09-14T20:36:48.519Z,8.60
2022-09-14T20:39:17.487Z,8.57
2022-09-14T20:41:47.546Z,8.83
2022-09-14T20:44:16.977Z,9.93
2022-09-14T20:46:47.147Z,12.00
2022-09-14T20:49:19.267Z,8.93
2022-09-14T20:51:47.786Z,10.27
2022-09-14T20:54:20.200Z,11.57
2022-09-14T20:56:50.044Z,8.60
2022-09-14T20:59:20.036Z,11.37
2022-09-14T21:01:50.371Z,9.67
2022-09-14T21:04:20.532Z,10.50
2022-09-14T21:06:51.926Z,10.07
2022-09-14T21:09:22.449Z,8.50
2022-09-14T21:11:52.967Z,10.87
2022-09-14T21:14:22.182Z,10.47
2022-09-14T21:16:55.559Z,12.90
2022-09-14T21:19:25.726Z,10.10
2022-09-14T21:21:54.370Z,10.90
2022-09-14T21:24:24.242Z,11.80
2022-09-14T21:26:54.016Z,10.07
2022-09-14T21:29:24.626Z,8.60
2022-09-14T21:31:53.260Z,12.00
2022-09-14T21:34:21.618Z,10.40
2022-09-14T21:36:51.943Z,9.53
2022-09-14T21:39:22.973Z,10.77
2022-09-14T21:41:58.447Z,9.23
2022-09-14T21:44:31.599Z,11.20
2022-09-14T21:47:00.244Z,11.33
2022-09-14T21:49:28.662Z,11.13
2022-09-14T21:51:57.016Z,12.23
2022-09-14T21:54:25.444Z,12.03
2022-09-14T21:56:55.354Z,12.23
2022-09-14T21:59:24.958Z,11.07
2022-09-14T22:01:54.363Z,10.77
2022-09-14T22:04:24.359Z,10.33
2022-09-14T22:06:53.778Z,11.40
2022-09-14T22:09:24.746Z,9.90
2022-09-14T22:11:54.789Z,10.07
2022-09-14T22:14:27.032Z,11.50
2022-09-14T22:16:56.290Z,13.10
2022-09-14T22:19:28.866Z,13.43
2022-09-14T22:21:57.699Z,12.93
2022-09-14T22:24:29.698Z,10.57
2022-09-14T22:27:01.698Z,20.40
2022-09-14T22:29:30.484Z,14.13
2022-09-14T22:32:00.232Z,12.30
2022-09-14T22:34:28.880Z,14.47
2022-09-14T22:36:57.203Z,12.70
2022-09-14T22:39:25.641Z,16.10
2022-09-14T22:41:54.890Z,12.97
2022-09-14T22:44:24.698Z,14.70
2022-09-14T22:46:53.250Z,12.53
2022-09-14T22:49:21.764Z,15.73
2022-09-14T22:51:53.042Z,14.03
2022-09-14T22:54:22.919Z,14.97
2022-09-14T22:56:51.227Z,15.43
2022-09-14T22:59:19.463Z,14.83
2022-09-14T23:01:49.252Z,14.30
2022-09-14T23:04:17.594Z,16.47
2022-09-14T23:06:48.369Z,13.13
2022-09-14T23:09:21.576Z,13.47
2022-09-14T23:11:50.161Z,17.00
2022-09-14T23:14:18.921Z,17.07
2022-09-14T23:16:48.881Z,12.10
2022-09-14T23:19:19.034Z,12.77
2022-09-14T23:21:47.750Z,13.70
2022-09-14T23:24:16.248Z,15.43
2022-09-14T23:26:44.861Z,13.00
2022-09-14T23:29:15.704Z,15.70
2022-09-14T23:31:44.202Z,17.07
2022-09-14T23:34:13.928Z,13.47
2022-09-14T23:36:42.414Z,15.67
2022-09-14T23:39:10.832Z,12.30
2022-09-14T23:41:40.069Z,12.37
2022-09-14T23:44:08.558Z,14.57
2022-09-14T23:46:36.920Z,12.97
2022-09-14T23:49:05.172Z,14.27
2022-09-14T23:51:34.826Z,13.47
2022-09-14T23:54:03.109Z,15.07
2022-09-14T23:56:31.638Z,15.37
2022-09-14T23:58:59.926Z,13.60
